Time;durP1;ratioP1;P1;durP2;ratioP2;P2;SDS_P1;SDS_P2;PMS_P1;PMS_P2;Temp;Humidity;BMP_temperature;BMP_pressure;BME280_temperature;BME280_humidity;BME280_pressure;Samples;Min_cycle;Max_cycle;Signal;HPM_P1;HPM_P2
2023/09/05 00:01:48;;;;;;;12.02;7.57;;;;;;;;;;5058197;28;20398;-75
2023/09/05 00:04:32;;;;;;;11.02;7.75;;;;;;;;;;5058161;28;20041;-74
2023/09/05 00:07:18;;;;;;;9.13;7.70;;;;;;;;;;5052234;28;20044;-75
2023/09/05 00:10:12;;;;;;;10.18;7.93;;;;;;;;;;5051982;28;20048;-74
2023/09/05 00:12:57;;;;;;;11.20;7.97;;;;;;;;;;5053763;28;20423;-74
2023/09/05 00:15:43;;;;;;;7.78;6.93;;;;;;;;;;5062631;28;20045;-74
2023/09/05 00:18:28;;;;;;;8.30;6.47;;;;;;;;;;5060626;28;20053;-74
2023/09/05 00:21:18;;;;;;;7.95;6.18;;;;;;;;;;5061746;28;20045;-75
2023/09/05 00:24:26;;;;;;;11.18;6.38;;;;;;;;;;5055033;28;20045;-75
2023/09/05 00:27:13;;;;;;;8.07;5.60;;;;;;;;;;5040449;28;20045;-74
2023/09/05 00:29:58;;;;;;;6.03;5.05;;;;;;;;;;5055055;28;20048;-74
2023/09/05 00:32:45;;;;;;;6.53;4.80;;;;;;;;;;5046279;28;20415;-74
2023/09/05 00:35:30;;;;;;;6.38;4.85;;;;;;;;;;5046624;28;20059;-74
2023/09/05 00:38:17;;;;;;;8.10;4.97;;;;;;;;;;5055001;28;20044;-74
2023/09/05 00:41:04;;;;;;;7.13;4.70;;;;;;;;;;5039746;28;20045;-75
2023/09/05 00:43:49;;;;;;;8.25;5.20;;;;;;;;;;5039642;28;20401;-75
2023/09/05 00:46:35;;;;;;;6.68;4.85;;;;;;;;;;5046633;28;20045;-74
2023/09/05 00:49:28;;;;;;;6.28;5.28;;;;;;;;;;5046466;28;20049;-75
2023/09/05 00:52:14;;;;;;;6.43;5.10;;;;;;;;;;5046250;28;20061;-74
2023/09/05 00:55:00;;;;;;;7.57;5.10;;;;;;;;;;5046031;28;20478;-74
2023/09/05 00:57:46;;;;;;;9.05;5.15;;;;;;;;;;5054712;28;20048;-74
2023/09/05 01:00:31;;;;;;;7.30;5.13;;;;;;;;;;5046207;28;20041;-75
2023/09/05 01:03:16;;;;;;;6.43;5.10;;;;;;;;;;5054126;28;20494;-75
2023/09/05 01:06:08;;;;;;;10.93;5.43;;;;;;;;;;5054286;28;20394;-75
2023/09/05 01:09:18;;;;;;;8.43;5.03;;;;;;;;;;5046244;28;20045;-74
2023/09/05 01:12:05;;;;;;;17.13;5.72;;;;;;;;;;5045525;28;20049;-75
2023/09/05 01:14:50;;;;;;;7.20;5.65;;;;;;;;;;5060726;28;20041;-75
2023/09/05 01:17:36;;;;;;;7.07;5.07;;;;;;;;;;5054485;28;20049;-74
2023/09/05 01:20:31;;;;;;;9.93;4.90;;;;;;;;;;5054408;28;20510;-75
2023/09/05 01:23:17;;;;;;;7.65;5.53;;;;;;;;;;5043991;28;20053;-75
2023/09/05 01:26:03;;;;;;;6.78;5.30;;;;;;;;;;5061058;28;20048;-74
2023/09/05 01:28:52;;;;;;;10.60;5.30;;;;;;;;;;5054223;28;20426;-75
2023/09/05 01:31:36;;;;;;;15.82;5.57;;;;;;;;;;5053599;28;20498;-74
2023/09/05 01:34:22;;;;;;;9.68;5.88;;;;;;;;;;5060754;28;20048;-74
2023/09/05 01:37:14;;;;;;;9.77;5.60;;;;;;;;;;5045345;28;20053;-74
2023/09/05 01:39:59;;;;;;;10.23;5.60;;;;;;;;;;5045535;28;20486;-75
2023/09/05 01:42:44;;;;;;;7.63;4.93;;;;;;;;;;5045007;28;20482;-75
2023/09/05 01:45:29;;;;;;;7.63;5.63;;;;;;;;;;5045452;28;20390;-74
2023/09/05 01:48:15;;;;;;;7.32;5.20;;;;;;;;;;5045148;28;20041;-74
2023/09/05 01:51:01;;;;;;;8.77;4.97;;;;;;;;;;5053792;28;20049;-75
2023/09/05 01:53:46;;;;;;;7.80;5.38;;;;;;;;;;5060235;28;20049;-75
2023/09/05 01:56:32;;;;;;;7.88;5.18;;;;;;;;;;5053348;28;20045;-74
2023/09/05 01:59:21;;;;;;;7.28;5.45;;;;;;;;;;5045225;28;20483;-74
2023/09/05 02:02:06;;;;;;;8.57;5.47;;;;;;;;;;5059311;28;20044;-74
2023/09/05 02:04:52;;;;;;;8.90;5.03;;;;;;;;;;5044989;28;20041;-74
2023/09/05 02:07:38;;;;;;;7.70;5.38;;;;;;;;;;5044670;28;20439;-74
2023/09/05 02:10:24;;;;;;;9.85;5.35;;;;;;;;;;5044540;28;20041;-75
2023/09/05 02:13:09;;;;;;;7.95;5.05;;;;;;;;;;5053037;28;20041;-76
2023/09/05 02:15:55;;;;;;;8.02;5.85;;;;;;;;;;5053435;28;20044;-75
2023/09/05 02:18:40;;;;;;;8.05;5.45;;;;;;;;;;5044726;28;20498;-75
2023/09/05 02:21:26;;;;;;;8.20;5.43;;;;;;;;;;5052900;28;20486;-75
2023/09/05 02:24:12;;;;;;;9.35;5.05;;;;;;;;;;5059736;28;20045;-75
2023/09/05 02:26:57;;;;;;;5.80;5.07;;;;;;;;;;5059725;28;20191;-75
2023/09/05 02:29:56;;;;;;;7.70;5.63;;;;;;;;;;5052943;28;20049;-75
2023/09/05 02:32:43;;;;;;;8.18;5.40;;;;;;;;;;5059555;28;20049;-75
2023/09/05 02:35:28;;;;;;;8.18;5.93;;;;;;;;;;5052808;28;20041;-74
2023/09/05 02:38:14;;;;;;;10.80;5.70;;;;;;;;;;5043918;28;20319;-74
2023/09/05 02:40:59;;;;;;;8.88;5.35;;;;;;;;;;5044349;28;20049;-75
2023/09/05 02:43:46;;;;;;;7.55;5.50;;;;;;;;;;5052903;28;20104;-74
2023/09/05 02:46:31;;;;;;;8.60;5.25;;;;;;;;;;5044144;28;20045;-74
2023/09/05 02:49:17;;;;;;;7.43;5.40;;;;;;;;;;5043944;28;20402;-75
2023/09/05 02:52:02;;;;;;;12.30;5.45;;;;;;;;;;5044204;28;20045;-74
2023/09/05 02:54:48;;;;;;;7.72;5.10;;;;;;;;;;5052334;28;20390;-74
2023/09/05 02:57:34;;;;;;;21.55;6.03;;;;;;;;;;5052199;28;20048;-74
2023/09/05 03:00:19;;;;;;;7.10;5.53;;;;;;;;;;5038355;28;20041;-74
2023/09/05 03:03:05;;;;;;;6.38;5.00;;;;;;;;;;5059020;28;20045;-74
2023/09/05 03:05:51;;;;;;;7.43;5.70;;;;;;;;;;5043858;28;20048;-75
2023/09/05 03:08:38;;;;;;;9.48;5.70;;;;;;;;;;5043066;28;20041;-74
2023/09/05 03:11:25;;;;;;;5.90;5.22;;;;;;;;;;5052329;28;20041;-75
2023/09/05 03:14:10;;;;;;;12.27;5.15;;;;;;;;;;5051877;28;20045;-75
2023/09/05 03:16:57;;;;;;;11.20;5.30;;;;;;;;;;5043675;28;20048;-74
2023/09/05 03:19:42;;;;;;;7.65;4.78;;;;;;;;;;5043719;28;20053;-75
2023/09/05 03:22:28;;;;;;;7.45;4.97;;;;;;;;;;5043511;28;20045;-74
2023/09/05 03:25:13;;;;;;;7.68;5.47;;;;;;;;;;5043531;28;20041;-75
2023/09/05 03:27:58;;;;;;;9.15;5.32;;;;;;;;;;5043144;28;20037;-75
2023/09/05 03:30:44;;;;;;;9.48;5.65;;;;;;;;;;5051904;28;20494;-75
2023/09/05 03:33:29;;;;;;;10.50;5.80;;;;;;;;;;5042695;28;20044;-75
2023/09/05 03:36:14;;;;;;;8.10;5.90;;;;;;;;;;5051663;28;20052;-74
2023/09/05 03:38:59;;;;;;;12.95;5.97;;;;;;;;;;5052127;28;20517;-75
2023/09/05 03:41:45;;;;;;;7.28;5.68;;;;;;;;;;5043173;28;20389;-75
2023/09/05 03:44:29;;;;;;;13.82;6.03;;;;;;;;;;5043393;28;20037;-75
2023/09/05 03:47:15;;;;;;;10.60;6.00;;;;;;;;;;5042213;28;20494;-74
2023/09/05 03:50:01;;;;;;;10.32;5.30;;;;;;;;;;5042643;28;20510;-74
2023/09/05 03:52:46;;;;;;;6.78;5.55;;;;;;;;;;5051607;28;20037;-74
2023/09/05 03:55:34;;;;;;;8.20;5.93;;;;;;;;;;5051829;28;20045;-74
2023/09/05 03:58:19;;;;;;;7.72;5.53;;;;;;;;;;5051608;28;20049;-74
2023/09/05 04:01:12;;;;;;;7.97;5.20;;;;;;;;;;5051325;28;20041;-74
2023/09/05 04:03:58;;;;;;;5.72;4.93;;;;;;;;;;5042996;28;20037;-75
2023/09/05 04:06:43;;;;;;;7.47;5.22;;;;;;;;;;5051419;28;20490;-74
2023/09/05 04:09:31;;;;;;;12.00;5.38;;;;;;;;;;5051521;28;20053;-75
2023/09/05 04:12:16;;;;;;;6.82;5.30;;;;;;;;;;5050443;28;20041;-75
2023/09/05 04:15:02;;;;;;;8.50;5.43;;;;;;;;;;5050341;28;20041;-74
2023/09/05 04:17:50;;;;;;;14.20;4.82;;;;;;;;;;5051279;28;20044;-74
2023/09/05 04:20:35;;;;;;;6.05;4.53;;;;;;;;;;5051407;28;20056;-75
2023/09/05 04:23:23;;;;;;;8.45;4.93;;;;;;;;;;5042971;28;20318;-75
2023/09/05 04:26:08;;;;;;;8.73;5.30;;;;;;;;;;5057543;28;20049;-75
2023/09/05 04:28:54;;;;;;;10.02;5.20;;;;;;;;;;5042513;28;20049;-75
2023/09/05 04:31:39;;;;;;;7.18;4.82;;;;;;;;;;5042677;28;20406;-75
2023/09/05 04:34:25;;;;;;;10.30;5.63;;;;;;;;;;5042913;28;20390;-74
2023/09/05 04:37:10;;;;;;;8.70;5.20;;;;;;;;;;5042794;28;20052;-75
2023/09/05 04:39:56;;;;;;;10.48;4.72;;;;;;;;;;5042616;28;20402;-74
2023/09/05 04:42:43;;;;;;;10.38;5.43;;;;;;;;;;5050982;28;20049;-74
2023/09/05 04:45:28;;;;;;;10.65;6.10;;;;;;;;;;5050795;28;20053;-74
2023/09/05 04:48:14;;;;;;;5.88;5.00;;;;;;;;;;5057586;28;20049;-74
2023/09/05 04:51:02;;;;;;;7.47;4.95;;;;;;;;;;5050907;28;20049;-74
2023/09/05 04:53:47;;;;;;;12.65;5.47;;;;;;;;;;5050922;28;20394;-74
2023/09/05 04:56:33;;;;;;;9.15;5.20;;;;;;;;;;5050878;28;20053;-74
2023/09/05 04:59:18;;;;;;;9.73;5.60;;;;;;;;;;5053878;28;20049;-74
2023/09/05 05:02:04;;;;;;;10.55;5.85;;;;;;;;;;5054496;28;20049;-74
2023/09/05 05:04:53;;;;;;;9.65;5.28;;;;;;;;;;5054223;28;20052;-74
2023/09/05 05:07:40;;;;;;;7.65;5.82;;;;;;;;;;5054429;28;20045;-75
2023/09/05 05:10:26;;;;;;;8.15;6.18;;;;;;;;;;5054528;28;20489;-75
2023/09/05 05:13:13;;;;;;;11.02;7.25;;;;;;;;;;5053988;28;20045;-74
2023/09/05 05:15:58;;;;;;;10.55;6.18;;;;;;;;;;5039439;28;20033;-75
2023/09/05 05:18:43;;;;;;;10.20;6.97;;;;;;;;;;5054560;28;20045;-75
2023/09/05 05:21:30;;;;;;;12.45;7.88;;;;;;;;;;5060642;28;20041;-74
2023/09/05 05:24:14;;;;;;;19.00;8.32;;;;;;;;;;5054157;28;20042;-74
2023/09/05 05:27:00;;;;;;;12.23;7.70;;;;;;;;;;5054044;28;20410;-74
2023/09/05 05:29:46;;;;;;;11.32;8.07;;;;;;;;;;5054060;28;20041;-75
2023/09/05 05:32:31;;;;;;;12.48;7.78;;;;;;;;;;5060176;28;20426;-75
2023/09/05 05:35:17;;;;;;;11.68;6.95;;;;;;;;;;5052877;28;20045;-74
2023/09/05 05:38:02;;;;;;;10.05;7.55;;;;;;;;;;5053393;28;20045;-74
2023/09/05 05:40:48;;;;;;;10.63;7.93;;;;;;;;;;5059471;28;20390;-75
2023/09/05 05:43:33;;;;;;;10.82;7.28;;;;;;;;;;5053800;28;20482;-75
2023/09/05 05:46:19;;;;;;;13.70;7.90;;;;;;;;;;5054094;28;20045;-74
2023/09/05 05:49:05;;;;;;;12.10;7.35;;;;;;;;;;5053358;28;20374;-74
2023/09/05 05:51:50;;;;;;;12.10;8.15;;;;;;;;;;5060025;28;20044;-76
2023/09/05 05:54:36;;;;;;;13.32;7.88;;;;;;;;;;5053601;28;20041;-74
2023/09/05 05:57:22;;;;;;;14.50;7.90;;;;;;;;;;5053749;28;20048;-74
2023/09/05 06:00:08;;;;;;;18.80;7.32;;;;;;;;;;5053521;28;20474;-75
2023/09/05 06:02:58;;;;;;;10.82;6.70;;;;;;;;;;5052424;28;20343;-74
2023/09/05 06:05:45;;;;;;;13.65;7.80;;;;;;;;;;5052723;28;20044;-74
2023/09/05 06:08:30;;;;;;;24.92;16.02;;;;;;;;;;5053060;28;20044;-74
2023/09/05 06:11:16;;;;;;;22.98;14.90;;;;;;;;;;5052682;28;20041;-74
2023/09/05 06:14:02;;;;;;;17.27;12.63;;;;;;;;;;5054037;28;20044;-74
2023/09/05 06:16:48;;;;;;;12.63;8.52;;;;;;;;;;5059852;28;20041;-73
2023/09/05 06:19:34;;;;;;;14.70;7.50;;;;;;;;;;5052862;28;20044;-74
2023/09/05 06:22:19;;;;;;;12.02;7.50;;;;;;;;;;5059631;28;20049;-74
2023/09/05 06:25:05;;;;;;;16.00;8.90;;;;;;;;;;5044869;28;20398;-74
2023/09/05 06:27:51;;;;;;;16.25;9.60;;;;;;;;;;5054319;28;20041;-74
2023/09/05 06:30:37;;;;;;;15.15;8.63;;;;;;;;;;5053816;28;20045;-74
2023/09/05 06:33:23;;;;;;;14.32;7.88;;;;;;;;;;5060442;28;20056;-74
2023/09/05 06:36:11;;;;;;;14.85;7.85;;;;;;;;;;5060170;28;20040;-74
2023/09/05 06:38:55;;;;;;;10.65;7.82;;;;;;;;;;5059593;28;20041;-75
2023/09/05 06:41:41;;;;;;;11.30;8.10;;;;;;;;;;5059162;28;20474;-74
2023/09/05 06:44:30;;;;;;;16.45;7.57;;;;;;;;;;5052437;28;20048;-74
2023/09/05 06:47:16;;;;;;;17.50;9.07;;;;;;;;;;5052483;28;20045;-75
2023/09/05 06:50:04;;;;;;;14.02;8.43;;;;;;;;;;5052280;28;20490;-74
2023/09/05 06:52:50;;;;;;;12.23;6.28;;;;;;;;;;5052109;28;20041;-74
2023/09/05 06:55:36;;;;;;;9.55;6.38;;;;;;;;;;5052203;28;20483;-74
2023/09/05 06:58:23;;;;;;;13.50;7.47;;;;;;;;;;5052203;28;20049;-74
2023/09/05 07:01:09;;;;;;;13.07;6.60;;;;;;;;;;5058911;28;20048;-74
2023/09/05 07:03:55;;;;;;;9.90;6.80;;;;;;;;;;5052048;28;20041;-76
2023/09/05 07:06:40;;;;;;;14.50;6.95;;;;;;;;;;5051771;28;20414;-74
2023/09/05 07:09:26;;;;;;;9.10;5.90;;;;;;;;;;5050690;28;20402;-74
2023/09/05 07:12:12;;;;;;;11.82;6.07;;;;;;;;;;5051380;28;20041;-74
2023/09/05 07:14:57;;;;;;;12.23;7.05;;;;;;;;;;5050613;28;20041;-74
2023/09/05 07:17:43;;;;;;;9.98;7.57;;;;;;;;;;5052028;28;20037;-75
2023/09/05 07:20:28;;;;;;;7.97;6.57;;;;;;;;;;5058427;28;20040;-74
2023/09/05 07:23:14;;;;;;;20.42;6.95;;;;;;;;;;5049976;28;20048;-74
2023/09/05 07:26:06;;;;;;;11.98;6.90;;;;;;;;;;5051929;28;20045;-74
2023/09/05 07:28:52;;;;;;;10.93;6.80;;;;;;;;;;5051275;28;20394;-75
2023/09/05 07:31:41;;;;;;;8.73;5.00;;;;;;;;;;5051962;28;20510;-74
2023/09/05 07:34:27;;;;;;;11.65;6.15;;;;;;;;;;5051830;28;20045;-73
2023/09/05 07:37:14;;;;;;;15.43;5.75;;;;;;;;;;5051760;28;20040;-74
2023/09/05 07:39:59;;;;;;;13.43;6.80;;;;;;;;;;5058392;28;20426;-74
2023/09/05 07:42:45;;;;;;;9.70;5.68;;;;;;;;;;5051426;28;20044;-75
2023/09/05 07:45:32;;;;;;;12.05;5.70;;;;;;;;;;5051540;28;20041;-74
2023/09/05 07:48:18;;;;;;;6.97;5.43;;;;;;;;;;5058079;28;20041;-74
2023/09/05 07:51:07;;;;;;;10.73;6.10;;;;;;;;;;5051258;28;20049;-73
2023/09/05 07:54:03;;;;;;;10.48;5.90;;;;;;;;;;5058054;28;20045;-73
2023/09/05 07:56:48;;;;;;;9.15;5.60;;;;;;;;;;5058281;28;20429;-74
2023/09/05 07:59:35;;;;;;;8.77;5.90;;;;;;;;;;5051472;28;20053;-73
2023/09/05 08:02:20;;;;;;;12.10;5.57;;;;;;;;;;5058478;28;20502;-73
2023/09/05 08:05:06;;;;;;;8.35;5.40;;;;;;;;;;5051238;28;20033;-74
2023/09/05 08:07:52;;;;;;;8.38;5.45;;;;;;;;;;5051523;28;20049;-74
2023/09/05 08:10:37;;;;;;;11.35;5.80;;;;;;;;;;5051757;28;20041;-74
2023/09/05 08:13:23;;;;;;;12.82;6.05;;;;;;;;;;5051013;28;20045;-74
2023/09/05 08:16:10;;;;;;;14.15;6.70;;;;;;;;;;5036841;28;20045;-75
2023/09/05 08:18:55;;;;;;;15.43;6.90;;;;;;;;;;5058267;28;20048;-74
2023/09/05 08:21:41;;;;;;;9.32;5.47;;;;;;;;;;5051656;28;20049;-73
2023/09/05 08:24:26;;;;;;;16.08;7.78;;;;;;;;;;5058420;28;20490;-74
2023/09/05 08:27:13;;;;;;;5.50;4.63;;;;;;;;;;5051413;28;20041;-74
2023/09/05 08:29:58;;;;;;;9.70;5.13;;;;;;;;;;5051068;28;20049;-74
2023/09/05 08:32:43;;;;;;;8.35;5.22;;;;;;;;;;5051883;28;20037;-74
2023/09/05 08:35:29;;;;;;;8.98;5.00;;;;;;;;;;5055289;28;20057;-74
2023/09/05 08:38:15;;;;;;;6.55;4.90;;;;;;;;;;5055147;28;20215;-74
2023/09/05 08:41:01;;;;;;;6.57;4.72;;;;;;;;;;5054935;28;20045;-74
2023/09/05 08:43:47;;;;;;;13.90;9.23;;;;;;;;;;5055017;28;20394;-74
2023/09/05 08:46:35;;;;;;;25.63;11.48;;;;;;;;;;5054794;28;20037;-74
2023/09/05 08:49:21;;;;;;;9.27;5.90;;;;;;;;;;5054458;28;20405;-74
2023/09/05 08:52:06;;;;;;;10.65;5.22;;;;;;;;;;5054789;28;20053;-74
2023/09/05 08:54:53;;;;;;;12.60;8.02;;;;;;;;;;5055200;28;20045;-75
2023/09/05 08:57:41;;;;;;;12.98;5.50;;;;;;;;;;5054844;28;20397;-75
2023/09/05 09:00:28;;;;;;;9.38;5.55;;;;;;;;;;5054427;28;20049;-75
2023/09/05 09:03:12;;;;;;;7.22;4.82;;;;;;;;;;5054512;28;20041;-73
2023/09/05 09:05:58;;;;;;;10.50;6.38;;;;;;;;;;5054443;28;20041;-73
2023/09/05 09:08:44;;;;;;;6.57;4.57;;;;;;;;;;5053951;28;20045;-74
2023/09/05 09:11:30;;;;;;;9.65;4.60;;;;;;;;;;5060915;28;20045;-74
2023/09/05 09:14:21;;;;;;;6.97;5.30;;;;;;;;;;5054039;28;20049;-73
2023/09/05 09:17:09;;;;;;;6.13;5.03;;;;;;;;;;5054622;28;20037;-73
2023/09/05 09:19:54;;;;;;;10.73;4.82;;;;;;;;;;5054082;28;20049;-74
2023/09/05 09:22:41;;;;;;;7.90;5.03;;;;;;;;;;5054343;28;20057;-74
2023/09/05 09:25:27;;;;;;;8.70;4.82;;;;;;;;;;5060740;28;20045;-73
2023/09/05 09:28:21;;;;;;;8.35;4.82;;;;;;;;;;5045826;28;20041;-75
2023/09/05 09:31:12;;;;;;;10.82;4.75;;;;;;;;;;5054447;28;20045;-75
2023/09/05 09:33:57;;;;;;;5.35;4.18;;;;;;;;;;5054112;28;20045;-76
2023/09/05 09:36:50;;;;;;;9.50;5.13;;;;;;;;;;5054249;28;20056;-74
2023/09/05 09:39:35;;;;;;;6.85;5.50;;;;;;;;;;5060331;28;20049;-75
2023/09/05 09:42:24;;;;;;;8.60;5.05;;;;;;;;;;5053442;28;20494;-74
2023/09/05 09:45:10;;;;;;;7.13;4.78;;;;;;;;;;5052430;28;20037;-74
2023/09/05 09:47:57;;;;;;;7.15;4.70;;;;;;;;;;5053078;28;20044;-75
2023/09/05 09:50:44;;;;;;;19.70;11.07;;;;;;;;;;5054004;28;20049;-74
2023/09/05 09:53:34;;;;;;;13.45;7.97;;;;;;;;;;5053488;28;20057;-75
2023/09/05 09:56:23;;;;;;;7.07;4.07;;;;;;;;;;5053346;28;20041;-75
2023/09/05 09:59:11;;;;;;;8.13;4.60;;;;;;;;;;5060350;28;20037;-73
2023/09/05 10:01:57;;;;;;;8.20;4.25;;;;;;;;;;5053698;28;20053;-75
2023/09/05 10:04:43;;;;;;;6.28;4.65;;;;;;;;;;5053188;28;20056;-75
2023/09/05 10:07:30;;;;;;;5.63;3.95;;;;;;;;;;5053547;28;20045;-74
2023/09/05 10:10:16;;;;;;;7.28;4.25;;;;;;;;;;5052619;28;20040;-75
2023/09/05 10:13:02;;;;;;;8.27;4.72;;;;;;;;;;5052975;28;20049;-75
2023/09/05 10:15:48;;;;;;;7.43;4.55;;;;;;;;;;5053177;28;20386;-75
2023/09/05 10:18:38;;;;;;;9.18;5.22;;;;;;;;;;5052936;28;20045;-75
2023/09/05 10:21:25;;;;;;;10.85;5.05;;;;;;;;;;5053192;28;20053;-75
2023/09/05 10:24:11;;;;;;;7.07;4.85;;;;;;;;;;5053022;28;20040;-75
2023/09/05 10:26:57;;;;;;;6.30;4.13;;;;;;;;;;5044462;28;20045;-75
2023/09/05 10:29:47;;;;;;;5.90;4.43;;;;;;;;;;5052496;28;20060;-75
2023/09/05 10:32:32;;;;;;;8.07;4.43;;;;;;;;;;5043896;28;20049;-74
2023/09/05 10:35:19;;;;;;;9.82;4.55;;;;;;;;;;5052757;28;20045;-75
2023/09/05 10:38:06;;;;;;;10.85;4.45;;;;;;;;;;5052526;28;20494;-74
2023/09/05 10:40:52;;;;;;;17.60;7.85;;;;;;;;;;5052707;28;20037;-75
2023/09/05 10:43:54;;;;;;;44.13;18.17;;;;;;;;;;5052334;28;20463;-75
2023/09/05 10:46:40;;;;;;;18.55;8.80;;;;;;;;;;5053684;28;20044;-75
2023/09/05 10:49:25;;;;;;;12.65;5.47;;;;;;;;;;5054679;28;20037;-75
2023/09/05 10:52:21;;;;;;;9.50;4.57;;;;;;;;;;5054333;28;20037;-74
2023/09/05 10:55:29;;;;;;;5.05;4.10;;;;;;;;;;5039206;28;20033;-75
2023/09/05 10:58:47;;;;;;;5.18;4.07;;;;;;;;;;5054250;28;20040;-74
2023/09/05 11:01:33;;;;;;;6.20;4.20;;;;;;;;;;5054344;28;20045;-75
2023/09/05 11:04:23;;;;;;;6.10;4.10;;;;;;;;;;5054845;28;20033;-74
2023/09/05 11:07:10;;;;;;;4.50;4.07;;;;;;;;;;5054269;28;20482;-75
2023/09/05 11:09:55;;;;;;;8.00;3.90;;;;;;;;;;5053807;28;20045;-75
2023/09/05 11:12:41;;;;;;;6.13;4.18;;;;;;;;;;5053586;28;20053;-74
2023/09/05 11:15:30;;;;;;;7.90;4.35;;;;;;;;;;5053872;28;20049;-75
2023/09/05 11:18:17;;;;;;;9.68;4.75;;;;;;;;;;5053662;28;20033;-75
2023/09/05 11:21:06;;;;;;;7.78;4.10;;;;;;;;;;5053649;28;20045;-75
2023/09/05 11:23:53;;;;;;;8.48;4.22;;;;;;;;;;5052571;28;20045;-75
2023/09/05 11:26:38;;;;;;;8.15;4.25;;;;;;;;;;5053613;28;20041;-74
2023/09/05 11:29:27;;;;;;;5.15;3.95;;;;;;;;;;5053370;28;20406;-75
2023/09/05 11:32:14;;;;;;;10.55;4.05;;;;;;;;;;5053526;28;20041;-74
2023/09/05 11:35:03;;;;;;;7.47;4.03;;;;;;;;;;5053638;28;20049;-74
2023/09/05 11:37:57;;;;;;;5.35;3.80;;;;;;;;;;5053680;28;20033;-75
2023/09/05 11:40:52;;;;;;;5.93;4.20;;;;;;;;;;5053182;28;20482;-74
2023/09/05 11:43:47;;;;;;;8.05;3.80;;;;;;;;;;5053328;28;20041;-74
2023/09/05 11:46:35;;;;;;;7.97;3.83;;;;;;;;;;5053427;28;20048;-74
2023/09/05 11:49:20;;;;;;;7.20;4.45;;;;;;;;;;5052455;28;20040;-75
2023/09/05 11:52:06;;;;;;;7.15;4.10;;;;;;;;;;5053048;28;20045;-75
2023/09/05 11:54:53;;;;;;;6.15;4.53;;;;;;;;;;5053291;28;20482;-73
2023/09/05 11:57:39;;;;;;;6.45;3.60;;;;;;;;;;5052805;28;20048;-74
2023/09/05 12:00:26;;;;;;;5.88;3.67;;;;;;;;;;5059695;28;20045;-73
2023/09/05 12:03:14;;;;;;;9.13;3.72;;;;;;;;;;5053253;28;20389;-73
2023/09/05 12:06:02;;;;;;;5.95;3.63;;;;;;;;;;5053123;28;20041;-74
2023/09/05 12:08:47;;;;;;;5.90;3.83;;;;;;;;;;5055523;28;20045;-73
2023/09/05 12:11:32;;;;;;;6.07;3.85;;;;;;;;;;5057427;28;20037;-74
2023/09/05 12:14:20;;;;;;;7.57;3.55;;;;;;;;;;5056717;28;20483;-74
2023/09/05 12:17:04;;;;;;;7.05;3.85;;;;;;;;;;5048303;28;20049;-75
2023/09/05 12:19:52;;;;;;;4.30;3.83;;;;;;;;;;5057253;28;20045;-75
2023/09/05 12:22:39;;;;;;;5.22;3.70;;;;;;;;;;5057490;28;20049;-75
2023/09/05 12:25:26;;;;;;;7.10;4.10;;;;;;;;;;5056849;28;20041;-74
2023/09/05 12:28:15;;;;;;;6.07;3.78;;;;;;;;;;5064140;28;20045;-74
2023/09/05 12:31:05;;;;;;;5.10;3.83;;;;;;;;;;5057464;28;20061;-74
2023/09/05 12:33:50;;;;;;;5.32;3.03;;;;;;;;;;5056955;28;20393;-74
2023/09/05 12:36:35;;;;;;;4.35;3.28;;;;;;;;;;5056754;28;20045;-74
2023/09/05 12:39:21;;;;;;;4.72;3.90;;;;;;;;;;5056555;28;20049;-75
2023/09/05 12:42:09;;;;;;;8.20;3.55;;;;;;;;;;5057197;28;20402;-74
2023/09/05 12:44:54;;;;;;;5.75;3.72;;;;;;;;;;5056881;28;20041;-74
2023/09/05 12:47:40;;;;;;;4.72;3.20;;;;;;;;;;5057015;28;20053;-74
2023/09/05 12:50:55;;;;;;;6.50;3.20;;;;;;;;;;5056673;28;20406;-76
2023/09/05 12:53:44;;;;;;;4.00;3.20;;;;;;;;;;5061936;28;20053;-74
2023/09/05 12:56:30;;;;;;;6.53;3.47;;;;;;;;;;5054374;28;20057;-74
2023/09/05 12:59:17;;;;;;;5.30;3.10;;;;;;;;;;5055823;28;20053;-73
2023/09/05 13:02:03;;;;;;;6.43;3.05;;;;;;;;;;5056082;28;20048;-75
2023/09/05 13:04:50;;;;;;;8.40;3.55;;;;;;;;;;5056649;28;20387;-75
2023/09/05 13:07:35;;;;;;;4.68;3.05;;;;;;;;;;5056143;28;20045;-75
2023/09/05 13:10:20;;;;;;;7.95;3.20;;;;;;;;;;5041226;28;20045;-74
2023/09/05 13:13:07;;;;;;;6.78;2.90;;;;;;;;;;5055741;28;20041;-75
2023/09/05 13:15:53;;;;;;;6.32;3.30;;;;;;;;;;5062996;28;20048;-75
2023/09/05 13:18:38;;;;;;;6.15;2.90;;;;;;;;;;5055683;28;20037;-75
2023/09/05 13:21:24;;;;;;;5.75;2.83;;;;;;;;;;5055607;28;20045;-74
2023/09/05 13:24:10;;;;;;;6.28;3.05;;;;;;;;;;5055944;28;20053;-74
2023/09/05 13:26:56;;;;;;;8.20;3.00;;;;;;;;;;5055606;28;20045;-75
2023/09/05 13:29:40;;;;;;;6.38;2.60;;;;;;;;;;5055664;28;20037;-74
2023/09/05 13:32:25;;;;;;;3.67;2.75;;;;;;;;;;5056084;28;20049;-77
2023/09/05 13:35:11;;;;;;;3.83;2.63;;;;;;;;;;5055591;28;20399;-75
2023/09/05 13:37:56;;;;;;;5.65;2.97;;;;;;;;;;5054887;28;20486;-73
2023/09/05 13:40:42;;;;;;;4.07;2.88;;;;;;;;;;5055516;28;20053;-73
2023/09/05 13:43:27;;;;;;;8.82;2.95;;;;;;;;;;5056132;28;20041;-72
2023/09/05 13:46:13;;;;;;;7.53;3.47;;;;;;;;;;5055991;28;20045;-72
2023/09/05 13:48:59;;;;;;;7.05;3.72;;;;;;;;;;5055489;28;20053;-73
2023/09/05 13:51:45;;;;;;;6.97;3.38;;;;;;;;;;5055539;28;20045;-73
2023/09/05 13:54:30;;;;;;;6.93;2.70;;;;;;;;;;5062114;28;20478;-73
2023/09/05 13:57:15;;;;;;;7.40;2.55;;;;;;;;;;5055095;28;20041;-74
2023/09/05 14:00:01;;;;;;;8.10;2.63;;;;;;;;;;5055547;28;20045;-73
2023/09/05 14:02:57;;;;;;;10.50;2.80;;;;;;;;;;5055006;28;20049;-73
2023/09/05 14:05:42;;;;;;;2.60;2.33;;;;;;;;;;5054966;28;20037;-74
2023/09/05 14:08:28;;;;;;;4.63;2.40;;;;;;;;;;5054870;28;20406;-73
2023/09/05 14:11:13;;;;;;;3.33;2.55;;;;;;;;;;5055238;28;20053;-73
2023/09/05 14:13:59;;;;;;;5.90;2.45;;;;;;;;;;5055105;28;20045;-73
2023/09/05 14:16:44;;;;;;;4.20;2.70;;;;;;;;;;5054790;28;20041;-73
2023/09/05 14:19:30;;;;;;;5.15;2.40;;;;;;;;;;5055055;28;20053;-73
2023/09/05 14:22:15;;;;;;;4.25;2.50;;;;;;;;;;5061592;28;20049;-72
2023/09/05 14:25:00;;;;;;;5.22;2.60;;;;;;;;;;5055688;28;20041;-73
2023/09/05 14:27:46;;;;;;;4.25;2.65;;;;;;;;;;5061252;28;20041;-73
2023/09/05 14:30:31;;;;;;;3.40;2.80;;;;;;;;;;5053657;28;20053;-72
2023/09/05 14:33:17;;;;;;;5.47;2.70;;;;;;;;;;5055207;28;20386;-73
2023/09/05 14:36:03;;;;;;;6.13;2.97;;;;;;;;;;5054498;28;20041;-73
2023/09/05 14:38:49;;;;;;;4.60;2.50;;;;;;;;;;5045700;28;20049;-74
2023/09/05 14:41:35;;;;;;;4.93;2.70;;;;;;;;;;5053025;28;20045;-73
2023/09/05 14:44:21;;;;;;;6.38;2.80;;;;;;;;;;5054019;28;20045;-71
2023/09/05 14:47:06;;;;;;;4.63;2.80;;;;;;;;;;5054356;28;20045;-72
2023/09/05 14:49:52;;;;;;;4.63;2.80;;;;;;;;;;5053516;28;20052;-73
2023/09/05 14:52:37;;;;;;;6.47;2.80;;;;;;;;;;5054426;28;20040;-73
2023/09/05 14:55:24;;;;;;;3.92;2.58;;;;;;;;;;5054205;28;20053;-73
2023/09/05 14:58:09;;;;;;;5.15;2.40;;;;;;;;;;5054266;28;20045;-73
2023/09/05 15:00:54;;;;;;;3.28;2.60;;;;;;;;;;5060318;28;20045;-73
2023/09/05 15:03:40;;;;;;;4.72;3.00;;;;;;;;;;5054448;28;20044;-73
2023/09/05 15:06:26;;;;;;;4.93;3.53;;;;;;;;;;5053628;28;20107;-73
2023/09/05 15:09:13;;;;;;;6.18;3.45;;;;;;;;;;5053927;28;20048;-72
2023/09/05 15:11:58;;;;;;;7.70;3.50;;;;;;;;;;5053305;28;20041;-74
2023/09/05 15:14:44;;;;;;;7.75;3.65;;;;;;;;;;5034069;28;20049;-73
2023/09/05 15:17:29;;;;;;;7.55;3.38;;;;;;;;;;5034312;28;20046;-74
2023/09/05 15:20:28;;;;;;;6.60;2.92;;;;;;;;;;5033835;28;20053;-74
2023/09/05 15:23:14;;;;;;;7.57;2.72;;;;;;;;;;5033040;28;20053;-72
2023/09/05 15:25:59;;;;;;;4.72;2.90;;;;;;;;;;5033407;28;20045;-72
2023/09/05 15:28:45;;;;;;;8.10;3.00;;;;;;;;;;5033467;28;20049;-73
2023/09/05 15:31:30;;;;;;;9.30;3.05;;;;;;;;;;5033719;28;20041;-73
2023/09/05 15:34:16;;;;;;;5.20;2.92;;;;;;;;;;5033736;28;20053;-74
2023/09/05 15:37:02;;;;;;;8.27;3.22;;;;;;;;;;5033375;28;20045;-74
2023/09/05 15:39:48;;;;;;;6.57;3.55;;;;;;;;;;5033576;28;20049;-73
2023/09/05 15:42:34;;;;;;;5.15;3.05;;;;;;;;;;5039099;28;20037;-74
2023/09/05 15:45:20;;;;;;;4.53;2.97;;;;;;;;;;5033592;28;20045;-74
2023/09/05 15:48:06;;;;;;;3.60;2.80;;;;;;;;;;5024887;28;20041;-74
2023/09/05 15:50:55;;;;;;;4.78;3.10;;;;;;;;;;5033944;28;20045;-74
2023/09/05 15:53:43;;;;;;;7.38;3.10;;;;;;;;;;5033210;28;20482;-74
2023/09/05 15:56:29;;;;;;;8.27;3.08;;;;;;;;;;5033312;28;20059;-75
2023/09/05 15:59:15;;;;;;;8.00;4.32;;;;;;;;;;5033383;28;20049;-73
2023/09/05 16:02:01;;;;;;;10.55;3.30;;;;;;;;;;5032968;28;20403;-74
2023/09/05 16:04:46;;;;;;;5.85;3.55;;;;;;;;;;5033406;28;20057;-74
2023/09/05 16:07:32;;;;;;;11.20;3.53;;;;;;;;;;5033004;28;20053;-73
2023/09/05 16:10:19;;;;;;;11.15;3.30;;;;;;;;;;5033003;28;20049;-73
2023/09/05 16:13:05;;;;;;;5.82;3.40;;;;;;;;;;5040872;28;20045;-73
2023/09/05 16:15:51;;;;;;;4.95;3.22;;;;;;;;;;5051922;28;20056;-73
2023/09/05 16:18:38;;;;;;;5.18;3.63;;;;;;;;;;5053287;28;20044;-73
2023/09/05 16:21:23;;;;;;;6.40;3.78;;;;;;;;;;5052836;28;20474;-73
2023/09/05 16:24:08;;;;;;;10.38;3.88;;;;;;;;;;5052126;28;20414;-72
2023/09/05 16:26:55;;;;;;;11.27;4.22;;;;;;;;;;5052885;28;20041;-73
2023/09/05 16:29:41;;;;;;;11.73;5.38;;;;;;;;;;5045034;28;20045;-73
2023/09/05 16:32:27;;;;;;;9.13;4.75;;;;;;;;;;5052883;28;20061;-75
2023/09/05 16:35:15;;;;;;;9.68;5.15;;;;;;;;;;5053198;28;20037;-74